sensor_id;sensor_type;location;lat;lon;timestamp;temperature;humidity
10304;DHT22;5197;48.152;8.590;2023-12-07T00:02:04;1.30;26.40
10304;DHT22;5197;48.152;8.590;2023-12-07T00:04:31;1.30;26.50
10304;DHT22;5197;48.152;8.590;2023-12-07T00:06:58;1.30;26.50
10304;DHT22;5197;48.152;8.590;2023-12-07T00:09:25;1.30;26.40
10304;DHT22;5197;48.152;8.590;2023-12-07T00:11:52;1.20;26.40
10304;DHT22;5197;48.152;8.590;2023-12-07T00:14:19;1.30;26.60
10304;DHT22;5197;48.152;8.590;2023-12-07T00:16:45;1.20;26.60
10304;DHT22;5197;48.152;8.590;2023-12-07T00:19:12;1.20;26.70
10304;DHT22;5197;48.152;8.590;2023-12-07T00:21:40;1.20;26.70
10304;DHT22;5197;48.152;8.590;2023-12-07T00:24:07;1.20;26.70
10304;DHT22;5197;48.152;8.590;2023-12-07T00:26:34;1.20;26.60
10304;DHT22;5197;48.152;8.590;2023-12-07T00:29:01;1.20;26.50
10304;DHT22;5197;48.152;8.590;2023-12-07T00:31:27;1.30;26.30
10304;DHT22;5197;48.152;8.590;2023-12-07T00:33:54;1.20;26.20
10304;DHT22;5197;48.152;8.590;2023-12-07T00:36:21;1.20;26.30
10304;DHT22;5197;48.152;8.590;2023-12-07T00:38:48;1.20;26.60
10304;DHT22;5197;48.152;8.590;2023-12-07T00:41:15;1.20;26.50
10304;DHT22;5197;48.152;8.590;2023-12-07T00:43:42;1.20;26.40
10304;DHT22;5197;48.152;8.590;2023-12-07T00:46:09;1.20;26.30
10304;DHT22;5197;48.152;8.590;2023-12-07T00:48:36;1.20;26.30
10304;DHT22;5197;48.152;8.590;2023-12-07T00:51:03;1.10;25.40
10304;DHT22;5197;48.152;8.590;2023-12-07T00:53:29;1.00;25.40
10304;DHT22;5197;48.152;8.590;2023-12-07T00:55:56;0.90;26.00
10304;DHT22;5197;48.152;8.590;2023-12-07T00:58:24;0.90;26.40
10304;DHT22;5197;48.152;8.590;2023-12-07T01:00:51;0.90;26.50
10304;DHT22;5197;48.152;8.590;2023-12-07T01:03:18;0.90;26.40
10304;DHT22;5197;48.152;8.590;2023-12-07T01:05:45;0.80;25.80
10304;DHT22;5197;48.152;8.590;2023-12-07T01:08:12;0.80;26.00
10304;DHT22;5197;48.152;8.590;2023-12-07T01:10:39;0.70;26.00
10304;DHT22;5197;48.152;8.590;2023-12-07T01:13:06;0.70;26.60
10304;DHT22;5197;48.152;8.590;2023-12-07T01:15:33;0.70;26.60
10304;DHT22;5197;48.152;8.590;2023-12-07T01:18:00;0.60;26.80
10304;DHT22;5197;48.152;8.590;2023-12-07T01:20:27;0.70;26.70
10304;DHT22;5197;48.152;8.590;2023-12-07T01:22:54;0.70;26.80
10304;DHT22;5197;48.152;8.590;2023-12-07T01:25:21;0.70;26.80
10304;DHT22;5197;48.152;8.590;2023-12-07T01:27:49;1.10;27.10
10304;DHT22;5197;48.152;8.590;2023-12-07T01:30:16;0.70;26.50
10304;DHT22;5197;48.152;8.590;2023-12-07T01:32:44;0.70;26.60
10304;DHT22;5197;48.152;8.590;2023-12-07T01:35:11;0.70;26.70
10304;DHT22;5197;48.152;8.590;2023-12-07T01:37:38;0.80;26.60
10304;DHT22;5197;48.152;8.590;2023-12-07T01:40:05;0.80;26.40
10304;DHT22;5197;48.152;8.590;2023-12-07T01:42:37;0.80;26.10
10304;DHT22;5197;48.152;8.590;2023-12-07T01:45:05;0.80;25.90
10304;DHT22;5197;48.152;8.590;2023-12-07T01:47:33;0.80;25.80
10304;DHT22;5197;48.152;8.590;2023-12-07T01:50:02;0.70;25.50
10304;DHT22;5197;48.152;8.590;2023-12-07T01:52:31;0.70;25.30
10304;DHT22;5197;48.152;8.590;2023-12-07T01:54:59;0.60;25.10
10304;DHT22;5197;48.152;8.590;2023-12-07T01:57:26;0.60;25.30
10304;DHT22;5197;48.152;8.590;2023-12-07T01:59:53;0.60;25.20
10304;DHT22;5197;48.152;8.590;2023-12-07T02:02:20;0.60;25.20
10304;DHT22;5197;48.152;8.590;2023-12-07T02:04:47;0.60;25.70
10304;DHT22;5197;48.152;8.590;2023-12-07T02:07:14;1.10;24.80
10304;DHT22;5197;48.152;8.590;2023-12-07T02:09:42;0.50;24.60
10304;DHT22;5197;48.152;8.590;2023-12-07T02:12:09;0.40;24.60
10304;DHT22;5197;48.152;8.590;2023-12-07T02:14:36;0.40;24.60
10304;DHT22;5197;48.152;8.590;2023-12-07T02:17:18;0.40;24.60
10304;DHT22;5197;48.152;8.590;2023-12-07T02:22:44;0.40;24.00
10304;DHT22;5197;48.152;8.590;2023-12-07T02:25:14;0.30;23.20
10304;DHT22;5197;48.152;8.590;2023-12-07T02:27:43;0.20;22.70
10304;DHT22;5197;48.152;8.590;2023-12-07T02:30:11;0.00;22.50
10304;DHT22;5197;48.152;8.590;2023-12-07T02:32:43;0.00;23.10
10304;DHT22;5197;48.152;8.590;2023-12-07T02:35:12;-0.10;23.10
10304;DHT22;5197;48.152;8.590;2023-12-07T02:37:45;-0.20;22.90
10304;DHT22;5197;48.152;8.590;2023-12-07T02:40:23;-0.20;23.20
10304;DHT22;5197;48.152;8.590;2023-12-07T02:42:53;-0.30;23.10
10304;DHT22;5197;48.152;8.590;2023-12-07T02:45:20;-0.30;23.10
10304;DHT22;5197;48.152;8.590;2023-12-07T02:47:47;-0.40;23.30
10304;DHT22;5197;48.152;8.590;2023-12-07T02:50:14;-0.40;23.50
10304;DHT22;5197;48.152;8.590;2023-12-07T02:52:41;-0.40;23.40
10304;DHT22;5197;48.152;8.590;2023-12-07T02:55:08;-0.40;23.40
10304;DHT22;5197;48.152;8.590;2023-12-07T02:57:36;-0.40;23.10
10304;DHT22;5197;48.152;8.590;2023-12-07T03:00:04;-0.40;23.00
10304;DHT22;5197;48.152;8.590;2023-12-07T03:02:35;-0.50;22.80
10304;DHT22;5197;48.152;8.590;2023-12-07T03:05:03;-0.50;23.30
10304;DHT22;5197;48.152;8.590;2023-12-07T03:07:31;-0.50;23.30
10304;DHT22;5197;48.152;8.590;2023-12-07T03:09:58;-0.50;22.80
10304;DHT22;5197;48.152;8.590;2023-12-07T03:12:25;-0.60;22.70
10304;DHT22;5197;48.152;8.590;2023-12-07T03:14:52;-0.70;22.70
10304;DHT22;5197;48.152;8.590;2023-12-07T03:17:19;-0.70;22.70
10304;DHT22;5197;48.152;8.590;2023-12-07T03:19:46;-0.80;22.70
10304;DHT22;5197;48.152;8.590;2023-12-07T03:22:13;-0.90;22.50
10304;DHT22;5197;48.152;8.590;2023-12-07T03:24:45;-0.90;22.60
10304;DHT22;5197;48.152;8.590;2023-12-07T03:27:12;-1.00;22.80
10304;DHT22;5197;48.152;8.590;2023-12-07T03:29:39;-1.10;23.00
10304;DHT22;5197;48.152;8.590;2023-12-07T03:32:06;-1.10;23.00
10304;DHT22;5197;48.152;8.590;2023-12-07T03:34:33;-1.10;23.20
10304;DHT22;5197;48.152;8.590;2023-12-07T03:37:00;-1.00;23.40
10304;DHT22;5197;48.152;8.590;2023-12-07T03:39:26;-1.00;24.20
10304;DHT22;5197;48.152;8.590;2023-12-07T03:41:54;-1.10;23.10
10304;DHT22;5197;48.152;8.590;2023-12-07T03:44:20;-1.00;23.30
10304;DHT22;5197;48.152;8.590;2023-12-07T03:46:47;-1.10;24.00
10304;DHT22;5197;48.152;8.590;2023-12-07T03:49:14;-1.10;23.00
10304;DHT22;5197;48.152;8.590;2023-12-07T03:51:42;-1.00;23.90
10304;DHT22;5197;48.152;8.590;2023-12-07T03:54:08;-1.10;22.90
10304;DHT22;5197;48.152;8.590;2023-12-07T03:56:35;-1.00;22.90
10304;DHT22;5197;48.152;8.590;2023-12-07T03:59:02;-1.00;22.70
10304;DHT22;5197;48.152;8.590;2023-12-07T04:01:29;-1.10;22.60
10304;DHT22;5197;48.152;8.590;2023-12-07T04:03:57;-1.10;22.70
10304;DHT22;5197;48.152;8.590;2023-12-07T04:06:27;-1.10;22.50
10304;DHT22;5197;48.152;8.590;2023-12-07T04:08:54;-1.10;22.80
10304;DHT22;5197;48.152;8.590;2023-12-07T04:11:21;-1.10;23.20
10304;DHT22;5197;48.152;8.590;2023-12-07T04:13:48;-1.10;23.00
10304;DHT22;5197;48.152;8.590;2023-12-07T04:16:15;-1.10;23.10
10304;DHT22;5197;48.152;8.590;2023-12-07T04:18:43;-1.10;22.90
10304;DHT22;5197;48.152;8.590;2023-12-07T04:21:10;-1.10;22.80
10304;DHT22;5197;48.152;8.590;2023-12-07T04:23:37;-1.10;22.50
10304;DHT22;5197;48.152;8.590;2023-12-07T04:26:04;-1.10;22.30
10304;DHT22;5197;48.152;8.590;2023-12-07T04:28:31;-1.10;22.30
10304;DHT22;5197;48.152;8.590;2023-12-07T04:30:58;-1.10;22.30
10304;DHT22;5197;48.152;8.590;2023-12-07T04:33:25;-1.20;22.20
10304;DHT22;5197;48.152;8.590;2023-12-07T04:35:52;-1.20;22.20
10304;DHT22;5197;48.152;8.590;2023-12-07T04:38:19;-1.20;21.80
10304;DHT22;5197;48.152;8.590;2023-12-07T04:40:46;-1.30;22.10
10304;DHT22;5197;48.152;8.590;2023-12-07T04:43:13;-1.30;22.20
10304;DHT22;5197;48.152;8.590;2023-12-07T04:45:39;-1.30;22.60
10304;DHT22;5197;48.152;8.590;2023-12-07T04:48:06;-1.30;22.80
10304;DHT22;5197;48.152;8.590;2023-12-07T04:50:33;-1.40;22.70
10304;DHT22;5197;48.152;8.590;2023-12-07T04:53:00;-1.30;22.70
10304;DHT22;5197;48.152;8.590;2023-12-07T04:55:27;-1.40;22.50
10304;DHT22;5197;48.152;8.590;2023-12-07T04:57:54;-1.40;22.40
10304;DHT22;5197;48.152;8.590;2023-12-07T05:00:20;-1.40;22.30
10304;DHT22;5197;48.152;8.590;2023-12-07T05:02:48;-1.50;22.10
10304;DHT22;5197;48.152;8.590;2023-12-07T05:05:15;-1.60;22.40
10304;DHT22;5197;48.152;8.590;2023-12-07T05:07:42;-1.60;22.60
10304;DHT22;5197;48.152;8.590;2023-12-07T05:10:09;-1.70;22.60
10304;DHT22;5197;48.152;8.590;2023-12-07T05:12:37;-1.70;22.80
10304;DHT22;5197;48.152;8.590;2023-12-07T05:15:04;-1.70;22.70
10304;DHT22;5197;48.152;8.590;2023-12-07T05:17:32;-1.70;22.40
10304;DHT22;5197;48.152;8.590;2023-12-07T05:19:59;-1.80;22.40
10304;DHT22;5197;48.152;8.590;2023-12-07T05:22:26;-1.90;22.50
10304;DHT22;5197;48.152;8.590;2023-12-07T05:24:54;-1.90;22.50
10304;DHT22;5197;48.152;8.590;2023-12-07T05:27:22;-1.90;22.70
10304;DHT22;5197;48.152;8.590;2023-12-07T05:29:49;-1.90;22.80
10304;DHT22;5197;48.152;8.590;2023-12-07T05:32:15;-2.00;22.70
10304;DHT22;5197;48.152;8.590;2023-12-07T05:34:42;-1.90;22.70
10304;DHT22;5197;48.152;8.590;2023-12-07T05:37:09;-2.00;22.60
10304;DHT22;5197;48.152;8.590;2023-12-07T05:39:36;-1.90;22.60
10304;DHT22;5197;48.152;8.590;2023-12-07T05:42:03;-1.90;22.60
10304;DHT22;5197;48.152;8.590;2023-12-07T05:44:31;-1.90;22.70
10304;DHT22;5197;48.152;8.590;2023-12-07T05:46:58;-1.90;22.90
10304;DHT22;5197;48.152;8.590;2023-12-07T05:49:25;-1.80;23.10
10304;DHT22;5197;48.152;8.590;2023-12-07T05:51:52;-1.80;23.00
10304;DHT22;5197;48.152;8.590;2023-12-07T05:54:19;-1.80;22.80
10304;DHT22;5197;48.152;8.590;2023-12-07T05:56:49;-1.80;22.20
10304;DHT22;5197;48.152;8.590;2023-12-07T05:59:17;-1.80;22.50
10304;DHT22;5197;48.152;8.590;2023-12-07T06:01:44;-1.80;22.60
10304;DHT22;5197;48.152;8.590;2023-12-07T06:04:11;-1.80;22.40
10304;DHT22;5197;48.152;8.590;2023-12-07T06:06:39;-1.90;22.20
10304;DHT22;5197;48.152;8.590;2023-12-07T06:09:06;-1.90;22.10
10304;DHT22;5197;48.152;8.590;2023-12-07T06:11:34;-2.00;22.30
10304;DHT22;5197;48.152;8.590;2023-12-07T06:14:01;-2.00;22.50
10304;DHT22;5197;48.152;8.590;2023-12-07T06:16:29;-2.10;22.40
10304;DHT22;5197;48.152;8.590;2023-12-07T06:18:56;-2.10;22.40
10304;DHT22;5197;48.152;8.590;2023-12-07T06:21:23;-2.20;22.60
10304;DHT22;5197;48.152;8.590;2023-12-07T06:23:52;-2.20;23.10
10304;DHT22;5197;48.152;8.590;2023-12-07T06:26:19;-2.20;22.40
10304;DHT22;5197;48.152;8.590;2023-12-07T06:28:46;-2.20;22.40
10304;DHT22;5197;48.152;8.590;2023-12-07T06:31:13;-2.30;22.10
10304;DHT22;5197;48.152;8.590;2023-12-07T06:33:42;-2.40;21.70
10304;DHT22;5197;48.152;8.590;2023-12-07T06:36:10;-2.50;21.80
10304;DHT22;5197;48.152;8.590;2023-12-07T06:38:37;-2.40;22.20
10304;DHT22;5197;48.152;8.590;2023-12-07T06:41:05;-2.40;22.60
10304;DHT22;5197;48.152;8.590;2023-12-07T06:43:32;-2.40;22.60
10304;DHT22;5197;48.152;8.590;2023-12-07T06:45:59;-2.30;22.50
10304;DHT22;5197;48.152;8.590;2023-12-07T06:48:26;-2.30;22.20
10304;DHT22;5197;48.152;8.590;2023-12-07T06:50:53;-2.30;22.10
10304;DHT22;5197;48.152;8.590;2023-12-07T06:53:20;-2.40;22.10
10304;DHT22;5197;48.152;8.590;2023-12-07T06:55:47;-2.40;21.80
10304;DHT22;5197;48.152;8.590;2023-12-07T06:58:14;-2.40;21.90
10304;DHT22;5197;48.152;8.590;2023-12-07T07:00:41;-2.40;21.90
10304;DHT22;5197;48.152;8.590;2023-12-07T07:03:08;-2.40;21.50
10304;DHT22;5197;48.152;8.590;2023-12-07T07:05:35;-2.50;21.40
10304;DHT22;5197;48.152;8.590;2023-12-07T07:08:02;-2.50;21.60
10304;DHT22;5197;48.152;8.590;2023-12-07T07:10:29;-2.50;21.90
10304;DHT22;5197;48.152;8.590;2023-12-07T07:13:02;-2.50;22.20
10304;DHT22;5197;48.152;8.590;2023-12-07T07:15:33;-2.50;22.30
10304;DHT22;5197;48.152;8.590;2023-12-07T07:18:00;-2.40;22.50
10304;DHT22;5197;48.152;8.590;2023-12-07T07:20:28;-2.40;22.60
10304;DHT22;5197;48.152;8.590;2023-12-07T07:22:54;-2.30;22.60
10304;DHT22;5197;48.152;8.590;2023-12-07T07:25:21;-2.30;22.50
10304;DHT22;5197;48.152;8.590;2023-12-07T07:27:48;-2.20;22.60
10304;DHT22;5197;48.152;8.590;2023-12-07T07:30:15;-2.20;22.70
10304;DHT22;5197;48.152;8.590;2023-12-07T07:32:42;-2.20;22.70
10304;DHT22;5197;48.152;8.590;2023-12-07T07:35:09;-2.10;22.80
10304;DHT22;5197;48.152;8.590;2023-12-07T07:37:38;-2.10;22.70
10304;DHT22;5197;48.152;8.590;2023-12-07T07:40:06;-2.00;22.60
10304;DHT22;5197;48.152;8.590;2023-12-07T07:42:34;-2.00;22.60
10304;DHT22;5197;48.152;8.590;2023-12-07T07:45:00;-2.00;22.40
10304;DHT22;5197;48.152;8.590;2023-12-07T07:47:27;-2.00;22.40
10304;DHT22;5197;48.152;8.590;2023-12-07T07:49:54;-2.00;22.50
10304;DHT22;5197;48.152;8.590;2023-12-07T07:52:21;-2.00;22.80
10304;DHT22;5197;48.152;8.590;2023-12-07T07:54:48;-1.80;25.40
10304;DHT22;5197;48.152;8.590;2023-12-07T07:57:15;-1.60;24.20
10304;DHT22;5197;48.152;8.590;2023-12-07T07:59:42;-1.60;22.80
10304;DHT22;5197;48.152;8.590;2023-12-07T08:02:08;-1.60;23.10
10304;DHT22;5197;48.152;8.590;2023-12-07T08:04:35;-1.60;21.80
10304;DHT22;5197;48.152;8.590;2023-12-07T08:07:02;-1.60;21.70
10304;DHT22;5197;48.152;8.590;2023-12-07T08:09:29;-1.70;21.80
10304;DHT22;5197;48.152;8.590;2023-12-07T08:11:56;-1.70;21.80
10304;DHT22;5197;48.152;8.590;2023-12-07T08:14:23;-1.70;22.30
10304;DHT22;5197;48.152;8.590;2023-12-07T08:16:50;-1.70;22.80
10304;DHT22;5197;48.152;8.590;2023-12-07T08:19:17;-1.70;22.90
10304;DHT22;5197;48.152;8.590;2023-12-07T08:21:44;-1.70;23.10
10304;DHT22;5197;48.152;8.590;2023-12-07T08:24:10;-1.70;23.20
10304;DHT22;5197;48.152;8.590;2023-12-07T08:26:39;-1.70;23.20
10304;DHT22;5197;48.152;8.590;2023-12-07T08:29:06;-1.70;24.30
10304;DHT22;5197;48.152;8.590;2023-12-07T08:31:36;-1.80;23.70
10304;DHT22;5197;48.152;8.590;2023-12-07T08:34:02;-1.70;24.20
10304;DHT22;5197;48.152;8.590;2023-12-07T08:36:29;-1.70;24.20
10304;DHT22;5197;48.152;8.590;2023-12-07T08:38:56;-1.70;24.60
10304;DHT22;5197;48.152;8.590;2023-12-07T08:41:23;-1.60;24.90
10304;DHT22;5197;48.152;8.590;2023-12-07T08:43:50;-1.50;25.20
10304;DHT22;5197;48.152;8.590;2023-12-07T08:46:17;-1.50;25.20
10304;DHT22;5197;48.152;8.590;2023-12-07T08:48:44;-1.40;25.10
10304;DHT22;5197;48.152;8.590;2023-12-07T08:51:11;-1.40;24.50
10304;DHT22;5197;48.152;8.590;2023-12-07T08:53:38;-1.40;24.40
10304;DHT22;5197;48.152;8.590;2023-12-07T08:56:05;-1.40;24.30
10304;DHT22;5197;48.152;8.590;2023-12-07T08:58:32;-1.30;24.80
10304;DHT22;5197;48.152;8.590;2023-12-07T09:00:59;-1.30;25.00
10304;DHT22;5197;48.152;8.590;2023-12-07T09:03:26;-1.30;25.10
10304;DHT22;5197;48.152;8.590;2023-12-07T09:06:02;-1.30;25.70
10304;DHT22;5197;48.152;8.590;2023-12-07T09:08:29;-1.10;25.70
10304;DHT22;5197;48.152;8.590;2023-12-07T09:10:56;-1.10;25.50
10304;DHT22;5197;48.152;8.590;2023-12-07T09:13:23;-1.00;25.50
10304;DHT22;5197;48.152;8.590;2023-12-07T09:15:50;-1.00;25.20
10304;DHT22;5197;48.152;8.590;2023-12-07T09:18:17;-0.90;25.20
10304;DHT22;5197;48.152;8.590;2023-12-07T09:20:44;-0.90;25.10
10304;DHT22;5197;48.152;8.590;2023-12-07T09:23:13;-0.90;25.30
10304;DHT22;5197;48.152;8.590;2023-12-07T09:25:42;-0.90;25.60
10304;DHT22;5197;48.152;8.590;2023-12-07T09:28:09;-0.80;25.50
10304;DHT22;5197;48.152;8.590;2023-12-07T09:30:36;-0.80;25.40
10304;DHT22;5197;48.152;8.590;2023-12-07T09:33:03;-0.70;25.80
10304;DHT22;5197;48.152;8.590;2023-12-07T09:35:31;-0.70;25.70
10304;DHT22;5197;48.152;8.590;2023-12-07T09:37:58;-0.70;25.50
10304;DHT22;5197;48.152;8.590;2023-12-07T09:40:25;-0.60;25.60
10304;DHT22;5197;48.152;8.590;2023-12-07T09:42:52;-0.60;26.00
10304;DHT22;5197;48.152;8.590;2023-12-07T09:45:21;-0.50;26.10
10304;DHT22;5197;48.152;8.590;2023-12-07T09:47:51;-0.50;26.00
10304;DHT22;5197;48.152;8.590;2023-12-07T09:50:23;-0.50;25.80
10304;DHT22;5197;48.152;8.590;2023-12-07T09:52:51;-0.40;25.80
10304;DHT22;5197;48.152;8.590;2023-12-07T09:55:33;-0.40;25.80
10304;DHT22;5197;48.152;8.590;2023-12-07T09:58:02;-0.40;25.50
10304;DHT22;5197;48.152;8.590;2023-12-07T10:00:29;-0.40;25.40
10304;DHT22;5197;48.152;8.590;2023-12-07T10:02:56;-0.40;25.70
10304;DHT22;5197;48.152;8.590;2023-12-07T10:05:23;-0.40;25.90
10304;DHT22;5197;48.152;8.590;2023-12-07T10:07:51;-0.30;26.00
10304;DHT22;5197;48.152;8.590;2023-12-07T10:10:18;-0.30;26.20
10304;DHT22;5197;48.152;8.590;2023-12-07T10:12:47;-0.20;26.80
10304;DHT22;5197;48.152;8.590;2023-12-07T10:15:16;0.00;27.10
10304;DHT22;5197;48.152;8.590;2023-12-07T10:17:51;0.10;26.40
10304;DHT22;5197;48.152;8.590;2023-12-07T10:20:23;0.20;26.10
10304;DHT22;5197;48.152;8.590;2023-12-07T10:23:05;0.20;25.80
10304;DHT22;5197;48.152;8.590;2023-12-07T10:25:35;0.30;25.60
10304;DHT22;5197;48.152;8.590;2023-12-07T10:28:02;0.30;25.70
10304;DHT22;5197;48.152;8.590;2023-12-07T10:30:34;0.40;26.90
10304;DHT22;5197;48.152;8.590;2023-12-07T10:33:05;0.40;25.80
10304;DHT22;5197;48.152;8.590;2023-12-07T10:35:39;0.50;25.80
10304;DHT22;5197;48.152;8.590;2023-12-07T10:38:07;0.60;25.80
10304;DHT22;5197;48.152;8.590;2023-12-07T10:40:34;0.60;25.80
10304;DHT22;5197;48.152;8.590;2023-12-07T10:43:06;0.70;25.50
10304;DHT22;5197;48.152;8.590;2023-12-07T10:45:34;0.80;25.70
10304;DHT22;5197;48.152;8.590;2023-12-07T10:50:34;0.80;25.40
10304;DHT22;5197;48.152;8.590;2023-12-07T10:53:08;0.80;25.40
10304;DHT22;5197;48.152;8.590;2023-12-07T10:55:47;0.80;25.10
10304;DHT22;5197;48.152;8.590;2023-12-07T10:58:17;0.90;25.60
10304;DHT22;5197;48.152;8.590;2023-12-07T11:00:45;0.90;25.80
10304;DHT22;5197;48.152;8.590;2023-12-07T11:03:16;1.00;25.80
10304;DHT22;5197;48.152;8.590;2023-12-07T11:05:48;1.00;25.80
10304;DHT22;5197;48.152;8.590;2023-12-07T11:08:32;2.70;27.00
10304;DHT22;5197;48.152;8.590;2023-12-07T11:11:04;1.10;26.00
10304;DHT22;5197;48.152;8.590;2023-12-07T11:13:36;1.10;25.90
10304;DHT22;5197;48.152;8.590;2023-12-07T11:16:04;1.20;26.00
10304;DHT22;5197;48.152;8.590;2023-12-07T11:18:31;1.20;26.00
10304;DHT22;5197;48.152;8.590;2023-12-07T11:20:59;1.20;25.90
10304;DHT22;5197;48.152;8.590;2023-12-07T11:23:29;1.30;25.60
10304;DHT22;5197;48.152;8.590;2023-12-07T11:25:57;1.30;25.40
10304;DHT22;5197;48.152;8.590;2023-12-07T11:28:35;1.30;25.60
10304;DHT22;5197;48.152;8.590;2023-12-07T11:31:02;1.40;25.50
10304;DHT22;5197;48.152;8.590;2023-12-07T11:33:30;1.40;25.50
10304;DHT22;5197;48.152;8.590;2023-12-07T11:36:05;1.50;25.20
10304;DHT22;5197;48.152;8.590;2023-12-07T11:38:33;1.50;24.90
10304;DHT22;5197;48.152;8.590;2023-12-07T11:41:00;1.50;24.80
10304;DHT22;5197;48.152;8.590;2023-12-07T11:46:02;1.70;24.70
10304;DHT22;5197;48.152;8.590;2023-12-07T11:48:29;1.70;24.60
10304;DHT22;5197;48.152;8.590;2023-12-07T11:51:06;1.80;24.50
10304;DHT22;5197;48.152;8.590;2023-12-07T11:53:38;1.90;24.30
10304;DHT22;5197;48.152;8.590;2023-12-07T11:56:08;1.90;24.10
10304;DHT22;5197;48.152;8.590;2023-12-07T11:58:36;2.00;24.00
10304;DHT22;5197;48.152;8.590;2023-12-07T12:01:07;2.00;23.80
10304;DHT22;5197;48.152;8.590;2023-12-07T12:03:35;2.00;23.50
10304;DHT22;5197;48.152;8.590;2023-12-07T12:06:05;2.10;23.60
10304;DHT22;5197;48.152;8.590;2023-12-07T12:08:33;2.10;23.30
10304;DHT22;5197;48.152;8.590;2023-12-07T12:11:00;2.10;23.10
10304;DHT22;5197;48.152;8.590;2023-12-07T12:13:33;2.20;22.70
10304;DHT22;5197;48.152;8.590;2023-12-07T12:16:00;2.20;22.40
10304;DHT22;5197;48.152;8.590;2023-12-07T12:18:33;2.20;22.50
10304;DHT22;5197;48.152;8.590;2023-12-07T12:21:00;2.30;22.20
10304;DHT22;5197;48.152;8.590;2023-12-07T12:23:28;2.40;21.60
10304;DHT22;5197;48.152;8.590;2023-12-07T12:25:56;2.40;21.10
10304;DHT22;5197;48.152;8.590;2023-12-07T12:28:23;2.40;20.40
10304;DHT22;5197;48.152;8.590;2023-12-07T12:30:51;2.40;19.80
10304;DHT22;5197;48.152;8.590;2023-12-07T12:33:19;2.50;19.50
10304;DHT22;5197;48.152;8.590;2023-12-07T12:35:46;2.50;19.40
10304;DHT22;5197;48.152;8.590;2023-12-07T12:38:13;2.50;19.20
10304;DHT22;5197;48.152;8.590;2023-12-07T12:40:54;2.50;18.90
10304;DHT22;5197;48.152;8.590;2023-12-07T12:43:21;2.50;18.50
10304;DHT22;5197;48.152;8.590;2023-12-07T12:45:49;2.50;18.20
10304;DHT22;5197;48.152;8.590;2023-12-07T12:48:32;2.40;18.60
10304;DHT22;5197;48.152;8.590;2023-12-07T12:51:08;2.50;18.60
10304;DHT22;5197;48.152;8.590;2023-12-07T12:53:35;2.50;18.30
10304;DHT22;5197;48.152;8.590;2023-12-07T12:56:03;2.50;18.20
10304;DHT22;5197;48.152;8.590;2023-12-07T12:58:30;2.50;17.70
10304;DHT22;5197;48.152;8.590;2023-12-07T13:00:58;2.50;17.60
10304;DHT22;5197;48.152;8.590;2023-12-07T13:03:25;2.50;17.30
10304;DHT22;5197;48.152;8.590;2023-12-07T13:05:52;2.50;16.90
10304;DHT22;5197;48.152;8.590;2023-12-07T13:08:20;2.60;16.90
10304;DHT22;5197;48.152;8.590;2023-12-07T13:10:47;2.60;16.90
10304;DHT22;5197;48.152;8.590;2023-12-07T13:13:14;2.60;16.90
10304;DHT22;5197;48.152;8.590;2023-12-07T13:15:42;2.60;16.80
10304;DHT22;5197;48.152;8.590;2023-12-07T13:18:08;2.60;16.80
10304;DHT22;5197;48.152;8.590;2023-12-07T13:20:35;2.60;16.90
10304;DHT22;5197;48.152;8.590;2023-12-07T13:23:05;2.60;16.80
10304;DHT22;5197;48.152;8.590;2023-12-07T13:25:33;2.70;16.70
10304;DHT22;5197;48.152;8.590;2023-12-07T13:28:00;2.70;15.90
10304;DHT22;5197;48.152;8.590;2023-12-07T13:30:26;2.70;15.70
10304;DHT22;5197;48.152;8.590;2023-12-07T13:32:56;2.70;14.90
10304;DHT22;5197;48.152;8.590;2023-12-07T13:35:23;2.80;13.70
10304;DHT22;5197;48.152;8.590;2023-12-07T13:37:50;2.80;13.40
10304;DHT22;5197;48.152;8.590;2023-12-07T13:40:17;2.70;13.30
10304;DHT22;5197;48.152;8.590;2023-12-07T13:42:44;2.80;13.20
10304;DHT22;5197;48.152;8.590;2023-12-07T13:45:10;2.70;13.10
10304;DHT22;5197;48.152;8.590;2023-12-07T13:47:38;2.70;13.10
10304;DHT22;5197;48.152;8.590;2023-12-07T13:50:05;2.70;13.40
10304;DHT22;5197;48.152;8.590;2023-12-07T13:52:33;2.80;13.40
10304;DHT22;5197;48.152;8.590;2023-12-07T13:55:00;2.70;13.30
10304;DHT22;5197;48.152;8.590;2023-12-07T13:57:28;2.70;13.40
10304;DHT22;5197;48.152;8.590;2023-12-07T13:59:57;2.70;13.30
10304;DHT22;5197;48.152;8.590;2023-12-07T14:02:24;2.70;13.40
10304;DHT22;5197;48.152;8.590;2023-12-07T14:04:52;2.60;13.50
10304;DHT22;5197;48.152;8.590;2023-12-07T14:07:21;2.60;13.80
10304;DHT22;5197;48.152;8.590;2023-12-07T14:09:51;2.60;13.90
10304;DHT22;5197;48.152;8.590;2023-12-07T14:12:25;2.60;14.00
10304;DHT22;5197;48.152;8.590;2023-12-07T14:14:55;2.60;14.00
10304;DHT22;5197;48.152;8.590;2023-12-07T14:17:22;2.60;14.10
10304;DHT22;5197;48.152;8.590;2023-12-07T14:20:08;2.50;13.90
10304;DHT22;5197;48.152;8.590;2023-12-07T14:22:55;2.60;13.90
10304;DHT22;5197;48.152;8.590;2023-12-07T14:25:23;2.50;14.00
10304;DHT22;5197;48.152;8.590;2023-12-07T14:27:51;2.50;13.90
10304;DHT22;5197;48.152;8.590;2023-12-07T14:30:18;2.50;14.00
10304;DHT22;5197;48.152;8.590;2023-12-07T14:32:45;2.50;13.90
10304;DHT22;5197;48.152;8.590;2023-12-07T14:35:19;2.50;13.90
10304;DHT22;5197;48.152;8.590;2023-12-07T14:37:47;2.50;13.80
10304;DHT22;5197;48.152;8.590;2023-12-07T14:40:17;2.50;13.70
10304;DHT22;5197;48.152;8.590;2023-12-07T14:42:44;2.50;13.80
10304;DHT22;5197;48.152;8.590;2023-12-07T14:45:12;2.50;13.90
10304;DHT22;5197;48.152;8.590;2023-12-07T14:47:41;2.40;13.70
10304;DHT22;5197;48.152;8.590;2023-12-07T14:50:09;2.40;13.80
10304;DHT22;5197;48.152;8.590;2023-12-07T14:52:36;2.30;13.60
10304;DHT22;5197;48.152;8.590;2023-12-07T14:55:03;2.30;13.90
10304;DHT22;5197;48.152;8.590;2023-12-07T14:57:31;2.30;14.00
10304;DHT22;5197;48.152;8.590;2023-12-07T14:59:58;2.20;14.00
10304;DHT22;5197;48.152;8.590;2023-12-07T15:02:25;2.20;14.00
10304;DHT22;5197;48.152;8.590;2023-12-07T15:04:53;2.10;14.00
10304;DHT22;5197;48.152;8.590;2023-12-07T15:07:20;2.10;14.10
10304;DHT22;5197;48.152;8.590;2023-12-07T15:09:46;2.10;14.20
10304;DHT22;5197;48.152;8.590;2023-12-07T15:12:15;2.00;14.30
10304;DHT22;5197;48.152;8.590;2023-12-07T15:14:45;2.00;14.40
10304;DHT22;5197;48.152;8.590;2023-12-07T15:17:13;2.00;14.50
10304;DHT22;5197;48.152;8.590;2023-12-07T15:19:40;1.90;14.30
10304;DHT22;5197;48.152;8.590;2023-12-07T15:22:08;1.80;14.40
10304;DHT22;5197;48.152;8.590;2023-12-07T15:24:35;1.80;14.60
10304;DHT22;5197;48.152;8.590;2023-12-07T15:27:04;1.70;14.50
10304;DHT22;5197;48.152;8.590;2023-12-07T15:29:32;1.60;14.90
10304;DHT22;5197;48.152;8.590;2023-12-07T15:32:02;1.50;15.20
10304;DHT22;5197;48.152;8.590;2023-12-07T15:34:29;1.50;15.50
10304;DHT22;5197;48.152;8.590;2023-12-07T15:37:06;1.50;15.70
10304;DHT22;5197;48.152;8.590;2023-12-07T15:39:33;1.40;16.10
10304;DHT22;5197;48.152;8.590;2023-12-07T15:42:00;1.40;16.10
10304;DHT22;5197;48.152;8.590;2023-12-07T15:44:30;1.40;16.10
10304;DHT22;5197;48.152;8.590;2023-12-07T15:46:58;1.30;17.00
10304;DHT22;5197;48.152;8.590;2023-12-07T15:49:26;1.30;16.00
10304;DHT22;5197;48.152;8.590;2023-12-07T15:51:54;1.30;17.00
10304;DHT22;5197;48.152;8.590;2023-12-07T15:54:26;1.30;16.10
10304;DHT22;5197;48.152;8.590;2023-12-07T15:57:05;1.30;16.00
10304;DHT22;5197;48.152;8.590;2023-12-07T15:59:34;1.20;16.00
10304;DHT22;5197;48.152;8.590;2023-12-07T16:02:00;1.20;17.00
10304;DHT22;5197;48.152;8.590;2023-12-07T16:04:29;1.20;16.00
10304;DHT22;5197;48.152;8.590;2023-12-07T16:07:02;1.30;16.10
10304;DHT22;5197;48.152;8.590;2023-12-07T16:09:34;1.40;16.10